Time;durP1;ratioP1;P1;durP2;ratioP2;P2;SDS_P1;SDS_P2;PMS_P1;PMS_P2;Temp;Humidity;BMP_temperature;BMP_pressure;BME280_temperature;BME280_humidity;BME280_pressure;Samples;Min_cycle;Max_cycle;Signal;HPM_P1;HPM_P2
2022/08/21 00:01:14;;;;;;;2.25;1.50;;;;;;;15.35;96.31;96009.28;5048386;28;24462;-73
2022/08/21 00:03:41;;;;;;;2.53;1.70;;;;;;;15.37;95.85;96011.78;5052113;28;25000;-73
2022/08/21 00:06:08;;;;;;;2.17;1.50;;;;;;;15.32;96.78;96011.31;5046119;28;24467;-73
2022/08/21 00:08:35;;;;;;;2.75;1.80;;;;;;;15.33;97.17;96016.41;5051562;28;24471;-73
2022/08/21 00:11:02;;;;;;;5.57;2.13;;;;;;;15.30;97.43;96015.81;5046764;28;24431;-73
2022/08/21 00:13:28;;;;;;;3.22;1.92;;;;;;;15.32;98.10;96009.53;5050606;28;24988;-73
2022/08/21 00:15:56;;;;;;;4.30;1.85;;;;;;;15.26;98.86;96012.59;5047027;28;24999;-73
2022/08/21 00:18:23;;;;;;;2.92;1.77;;;;;;;15.29;97.99;96008.94;5049419;28;24439;-73
2022/08/21 00:20:49;;;;;;;3.25;1.80;;;;;;;15.25;97.86;96008.34;5046838;28;24976;-73
2022/08/21 00:23:16;;;;;;;3.70;1.60;;;;;;;15.20;98.17;96013.06;5049391;28;24447;-73
2022/08/21 00:25:44;;;;;;;3.25;1.55;;;;;;;15.25;97.52;96008.34;5047600;28;24434;-73
2022/08/21 00:28:12;;;;;;;7.35;2.42;;;;;;;15.23;98.82;96008.44;5049726;28;24828;-73
2022/08/21 00:30:40;;;;;;;2.80;1.70;;;;;;;15.18;97.76;96001.94;5040267;28;24442;-73
2022/08/21 00:33:11;;;;;;;2.55;1.63;;;;;;;15.14;96.44;96000.50;5049617;28;24431;-73
2022/08/21 00:35:42;;;;;;;1.75;1.30;;;;;;;15.07;95.24;95999.31;5047681;28;24434;-73
2022/08/21 00:38:10;;;;;;;2.75;1.70;;;;;;;14.89;96.62;96002.38;5050174;28;24434;-73
2022/08/21 00:40:41;;;;;;;3.92;1.50;;;;;;;14.87;97.77;96000.84;5047706;28;24945;-73
2022/08/21 00:43:11;;;;;;;2.38;1.63;;;;;;;14.68;100.00;96002.25;5050278;28;24462;-73
2022/08/21 00:45:38;;;;;;;3.45;1.65;;;;;;;14.76;96.61;95997.28;5047549;28;24458;-73
2022/08/21 00:48:05;;;;;;;2.22;1.50;;;;;;;14.62;96.36;95994.06;5050404;28;24435;-73
2022/08/21 00:50:39;;;;;;;1.83;1.50;;;;;;;14.41;97.49;95999.88;5047559;28;24478;-73
2022/08/21 00:53:08;;;;;;;3.42;1.65;;;;;;;14.33;98.26;95991.81;5050217;28;24434;-73
2022/08/21 00:55:36;;;;;;;2.40;1.63;;;;;;;14.31;98.11;95990.25;5046667;28;24462;-73
2022/08/21 00:58:06;;;;;;;4.20;1.90;;;;;;;14.14;100.00;95994.13;5050065;28;24438;-73
2022/08/21 01:00:36;;;;;;;4.25;1.85;;;;;;;14.11;100.00;95987.34;5047519;28;24983;-73
2022/08/21 01:03:08;;;;;;;5.50;2.05;;;;;;;14.18;100.00;95991.16;5050073;28;24548;-73
2022/08/21 01:05:36;;;;;;;2.65;1.70;;;;;;;14.24;98.96;95993.34;5047410;28;24440;-73
2022/08/21 01:08:03;;;;;;;2.92;1.73;;;;;;;14.09;100.00;95984.06;5049712;28;24976;-73
2022/08/21 01:10:30;;;;;;;4.90;1.80;;;;;;;14.13;100.00;95987.25;5047328;28;24989;-73
2022/08/21 01:12:58;;;;;;;3.10;2.08;;;;;;;14.14;100.00;95988.91;5050205;28;24430;-73
2022/08/21 01:15:30;;;;;;;2.30;1.70;;;;;;;14.09;100.00;95997.06;5043751;28;24439;-73
2022/08/21 01:17:57;;;;;;;3.15;1.80;;;;;;;13.99;100.00;95993.47;5049912;28;25041;-73
2022/08/21 01:20:24;;;;;;;3.58;1.70;;;;;;;13.84;100.00;95990.19;5043119;28;24794;-73
2022/08/21 01:22:51;;;;;;;1.77;1.52;;;;;;;13.79;100.00;95993.16;5050088;28;24530;-73
2022/08/21 01:25:20;;;;;;;2.97;1.67;;;;;;;13.74;100.00;95999.59;5047341;28;24995;-73
2022/08/21 01:27:47;;;;;;;3.42;1.77;;;;;;;13.80;100.00;95987.00;5050376;28;24424;-73
2022/08/21 01:30:16;;;;;;;2.35;1.45;;;;;;;13.90;100.00;95992.34;5047151;28;24786;-73
2022/08/21 01:32:43;;;;;;;2.95;1.80;;;;;;;13.94;100.00;95982.53;5051189;28;24427;-73
2022/08/21 01:35:12;;;;;;;2.58;1.90;;;;;;;13.86;100.00;95985.69;5047000;28;24760;-73
2022/08/21 01:37:39;;;;;;;1.92;1.60;;;;;;;13.84;100.00;95984.16;5049716;28;24488;-73
2022/08/21 01:40:09;;;;;;;2.97;1.60;;;;;;;13.75;100.00;95981.25;5049954;28;24442;-73
2022/08/21 01:42:36;;;;;;;1.92;1.60;;;;;;;13.62;100.00;95979.69;5058079;28;24451;-73
2022/08/21 01:45:03;;;;;;;3.15;1.80;;;;;;;13.65;100.00;95980.28;5049646;28;24992;-73
2022/08/21 01:47:29;;;;;;;8.90;2.28;;;;;;;13.52;100.00;95975.09;5050354;28;24442;-73
2022/08/21 01:49:56;;;;;;;6.97;2.13;;;;;;;13.50;100.00;95978.78;5046746;28;24427;-73
2022/08/21 01:52:23;;;;;;;8.40;1.70;;;;;;;13.52;100.00;95972.50;5049485;28;24423;-73
2022/08/21 01:54:49;;;;;;;2.83;1.70;;;;;;;13.55;100.00;95977.50;5046803;28;24522;-73
2022/08/21 01:57:17;;;;;;;1.90;1.48;;;;;;;13.62;100.00;95977.06;5049326;28;24793;-73
2022/08/21 01:59:44;;;;;;;3.40;1.70;;;;;;;13.58;100.00;95973.84;5046590;28;24436;-73
2022/08/21 02:02:10;;;;;;;2.25;1.60;;;;;;;13.58;100.00;95981.66;5049203;28;25022;-73
2022/08/21 02:04:38;;;;;;;4.32;1.67;;;;;;;13.62;100.00;95974.47;5045757;28;24958;-73
2022/08/21 02:07:05;;;;;;;2.30;1.83;;;;;;;13.52;100.00;95969.91;5049442;28;25042;-73
2022/08/21 02:09:31;;;;;;;3.28;1.75;;;;;;;13.44;100.00;95964.41;5047036;28;24428;-73
2022/08/21 02:11:58;;;;;;;3.47;1.70;;;;;;;13.38;100.00;95967.44;5049902;28;24438;-73
2022/08/21 02:14:26;;;;;;;3.95;1.70;;;;;;;13.35;100.00;95961.63;5047431;28;24439;-73
2022/08/21 02:16:53;;;;;;;3.00;1.87;;;;;;;13.45;100.00;95960.88;5050100;28;25059;-73
2022/08/21 02:19:19;;;;;;;2.58;1.55;;;;;;;13.39;100.00;95966.53;5036580;28;24435;-73
2022/08/21 02:21:45;;;;;;;2.45;1.67;;;;;;;13.35;100.00;95962.50;5050218;28;24439;-73
2022/08/21 02:24:13;;;;;;;3.78;1.48;;;;;;;13.36;100.00;95966.75;5043101;28;24431;-73
2022/08/21 02:26:40;;;;;;;2.50;1.58;;;;;;;13.22;100.00;95957.28;5050120;28;24431;-73
2022/08/21 02:29:06;;;;;;;2.22;1.60;;;;;;;13.14;100.00;95953.56;5044016;28;25011;-73
2022/08/21 02:31:34;;;;;;;2.20;1.60;;;;;;;13.07;100.00;95955.75;5038711;28;24430;-73
2022/08/21 02:34:01;;;;;;;2.05;1.85;;;;;;;13.01;100.00;95951.78;5044762;28;24461;-73
2022/08/21 02:36:28;;;;;;;5.65;1.85;;;;;;;13.00;100.00;95949.31;5048349;28;25036;-73
2022/08/21 02:38:54;;;;;;;2.42;1.67;;;;;;;13.05;100.00;95955.00;5045421;28;24423;-73
2022/08/21 02:41:22;;;;;;;3.40;1.70;;;;;;;13.18;100.00;95952.41;5047932;28;24427;-73
2022/08/21 02:43:48;;;;;;;3.83;1.95;;;;;;;13.13;100.00;95951.91;5045123;28;24486;-73
2022/08/21 02:46:18;;;;;;;3.47;1.60;;;;;;;13.08;100.00;95953.03;5047756;28;24458;-73
2022/08/21 02:48:47;;;;;;;4.25;2.10;;;;;;;13.03;100.00;95949.09;5045527;28;24459;-73
2022/08/21 02:51:17;;;;;;;3.22;2.05;;;;;;;13.00;100.00;95949.31;5048135;28;24467;-73
2022/08/21 02:53:44;;;;;;;2.75;1.70;;;;;;;12.91;100.00;95949.97;5045263;28;24489;-73
2022/08/21 02:56:12;;;;;;;2.03;1.50;;;;;;;12.88;100.00;95945.78;5041117;28;24992;-73
2022/08/21 02:58:41;;;;;;;1.90;1.25;;;;;;;12.91;100.00;95950.78;5045262;28;24988;-73
2022/08/21 03:01:09;;;;;;;2.27;1.70;;;;;;;12.94;100.00;95954.91;5047769;28;24431;-73
2022/08/21 03:03:36;;;;;;;2.65;2.00;;;;;;;12.91;100.00;95945.59;5045138;28;24485;-73
2022/08/21 03:06:05;;;;;;;2.65;1.95;;;;;;;12.80;100.00;95942.91;5048453;28;24810;-74
2022/08/21 03:08:32;;;;;;;4.57;2.07;;;;;;;12.76;100.00;95952.69;5045408;28;24439;-74
2022/08/21 03:10:59;;;;;;;2.80;1.63;;;;;;;12.75;100.00;95945.78;5047826;28;24430;-74
2022/08/21 03:13:26;;;;;;;6.53;1.75;;;;;;;12.75;100.00;95950.16;5041275;28;24793;-74
2022/08/21 03:15:52;;;;;;;3.92;1.90;;;;;;;12.74;100.00;95946.72;5048138;28;24432;-74
2022/08/21 03:18:19;;;;;;;3.28;1.65;;;;;;;12.74;100.00;95943.31;5045535;28;25200;-74
2022/08/21 03:20:47;;;;;;;3.38;1.92;;;;;;;12.79;100.00;95947.28;5052426;28;24508;-74
2022/08/21 03:23:17;;;;;;;3.92;1.88;;;;;;;12.80;100.00;95938.53;5048444;28;24451;-74
2022/08/21 03:25:45;;;;;;;2.72;1.80;;;;;;;12.71;100.00;95935.72;5052668;28;24431;-73
2022/08/21 03:28:14;;;;;;;4.32;1.80;;;;;;;12.59;100.00;95945.19;5048104;28;24439;-74
2022/08/21 03:30:41;;;;;;;3.35;1.48;;;;;;;12.39;100.00;95949.16;5048923;28;24444;-74
2022/08/21 03:33:07;;;;;;;3.42;2.03;;;;;;;12.37;100.00;95950.16;5050267;28;24856;-74
2022/08/21 03:35:34;;;;;;;5.75;2.00;;;;;;;12.33;100.00;95945.19;5053164;28;24442;-74
2022/08/21 03:38:00;;;;;;;2.75;1.73;;;;;;;12.35;100.00;95943.31;5050085;28;24443;-74
2022/08/21 03:40:28;;;;;;;2.28;1.60;;;;;;;12.37;100.00;95944.97;5052684;28;24996;-74
2022/08/21 03:42:55;;;;;;;2.85;1.70;;;;;;;12.44;100.00;95941.84;5050276;28;24550;-74
2022/08/21 03:45:22;;;;;;;3.55;1.95;;;;;;;12.47;100.00;95941.66;5052646;28;24977;-74
2022/08/21 03:47:57;;;;;;;2.63;2.00;;;;;;;12.50;100.00;95944.06;5050654;28;24429;-74
2022/08/21 03:50:24;;;;;;;3.20;1.90;;;;;;;12.54;100.00;95936.88;5049543;28;24799;-74
2022/08/21 03:52:51;;;;;;;2.95;1.80;;;;;;;12.54;100.00;95942.09;5048370;28;24437;-74
2022/08/21 03:55:17;;;;;;;2.90;1.70;;;;;;;12.61;100.00;95943.31;5050159;28;24443;-75
2022/08/21 03:57:45;;;;;;;3.90;1.48;;;;;;;12.55;100.00;95949.75;5047901;28;24432;-74
2022/08/21 04:00:14;;;;;;;3.43;1.80;;;;;;;12.49;100.00;95944.13;5050971;28;24435;-74
2022/08/21 04:02:41;;;;;;;3.13;1.83;;;;;;;12.34;100.00;95946.00;5047833;28;24550;-74
2022/08/21 04:05:08;;;;;;;3.70;2.05;;;;;;;12.30;100.00;95941.94;5051459;28;25092;-73
2022/08/21 04:07:35;;;;;;;1.70;1.50;;;;;;;12.21;100.00;95950.38;5046934;28;24447;-75
2022/08/21 04:10:01;;;;;;;2.37;1.63;;;;;;;12.23;100.00;95956.28;5052340;28;24623;-74
2022/08/21 04:12:28;;;;;;;2.60;1.92;;;;;;;12.24;100.00;95955.38;5046465;28;24782;-74
2022/08/21 04:14:56;;;;;;;6.00;1.92;;;;;;;12.21;100.00;95960.75;5053035;28;24435;-74
2022/08/21 04:17:22;;;;;;;2.85;1.83;;;;;;;12.20;100.00;95956.47;5046964;28;24447;-74
2022/08/21 04:19:48;;;;;;;2.28;1.60;;;;;;;12.22;100.00;95959.81;5052396;28;24431;-74
2022/08/21 04:22:16;;;;;;;2.55;1.90;;;;;;;12.24;100.00;95966.56;5046337;28;24458;-74
2022/08/21 04:24:42;;;;;;;3.05;1.40;;;;;;;12.31;100.00;95969.56;5052437;28;24511;-74
2022/08/21 04:27:09;;;;;;;3.75;1.90;;;;;;;12.24;100.00;95969.16;5046857;28;24960;-74
2022/08/21 04:29:35;;;;;;;2.22;1.80;;;;;;;12.26;100.00;95972.47;5043042;28;24431;-75
2022/08/21 04:32:04;;;;;;;2.42;1.73;;;;;;;12.28;100.00;95978.41;5048926;28;24789;-74
2022/08/21 04:34:30;;;;;;;3.63;1.65;;;;;;;12.29;100.00;95979.25;5051719;28;24969;-75
2022/08/21 04:36:57;;;;;;;2.70;1.90;;;;;;;12.24;100.00;95976.13;5052697;28;24458;-74
2022/08/21 04:39:23;;;;;;;3.20;1.75;;;;;;;12.27;100.00;95979.38;5054746;28;24992;-73
2022/08/21 04:41:50;;;;;;;4.50;1.85;;;;;;;12.38;100.00;95980.38;5048896;28;24825;-73
2022/08/21 04:44:16;;;;;;;3.35;1.98;;;;;;;12.44;100.00;95986.03;5051011;28;24462;-73
2022/08/21 04:46:43;;;;;;;2.78;1.73;;;;;;;12.45;100.00;95984.25;5048324;28;24431;-73
2022/08/21 04:49:10;;;;;;;2.65;1.50;;;;;;;12.40;100.00;95987.16;5050221;28;24434;-73
2022/08/21 04:51:39;;;;;;;2.88;1.88;;;;;;;12.38;100.00;95985.59;5047990;28;24435;-73
2022/08/21 04:54:10;;;;;;;2.40;1.60;;;;;;;12.41;100.00;95983.63;5050491;28;24431;-73
2022/08/21 04:56:38;;;;;;;3.60;1.83;;;;;;;12.40;100.00;95983.72;5047870;28;24450;-73
2022/08/21 04:59:07;;;;;;;2.67;1.55;;;;;;;12.42;100.00;95985.31;5050429;28;24435;-73
2022/08/21 05:01:37;;;;;;;2.33;1.73;;;;;;;12.47;100.00;95983.22;5047540;28;24480;-73
2022/08/21 05:04:06;;;;;;;3.42;1.73;;;;;;;12.55;100.00;95986.13;5049985;28;25020;-73
2022/08/21 05:06:37;;;;;;;2.33;1.52;;;;;;;12.68;100.00;95991.34;5043259;28;24435;-73
2022/08/21 05:09:05;;;;;;;3.75;1.63;;;;;;;12.63;100.00;95990.81;5049021;28;24462;-73
2022/08/21 05:11:32;;;;;;;1.70;1.23;;;;;;;12.57;100.00;95991.25;5048360;28;24976;-73
2022/08/21 05:13:59;;;;;;;2.90;1.40;;;;;;;12.61;100.00;95995.28;5050662;28;24454;-73
2022/08/21 05:16:26;;;;;;;2.67;1.52;;;;;;;12.68;100.00;95996.53;5047922;28;24433;-73
2022/08/21 05:18:53;;;;;;;4.05;1.60;;;;;;;12.82;100.00;95998.19;5051773;28;25050;-73
2022/08/21 05:21:20;;;;;;;2.58;1.80;;;;;;;12.91;100.00;96001.94;5048062;28;24434;-73
2022/08/21 05:23:48;;;;;;;2.72;1.67;;;;;;;12.95;100.00;96008.59;5051046;28;24467;-73
2022/08/21 05:26:15;;;;;;;2.55;1.80;;;;;;;13.06;100.00;96006.09;5048279;28;25007;-73
2022/08/21 05:28:41;;;;;;;2.80;1.85;;;;;;;13.19;100.00;96006.91;5050542;28;24440;-73
2022/08/21 05:31:07;;;;;;;2.87;1.90;;;;;;;13.39;100.00;96002.13;5045346;28;24438;-73
2022/08/21 05:33:34;;;;;;;3.13;1.70;;;;;;;13.52;100.00;96008.09;5051110;28;24435;-73
2022/08/21 05:36:01;;;;;;;3.20;2.20;;;;;;;13.61;100.00;96012.69;5048057;28;24435;-73
2022/08/21 05:38:28;;;;;;;3.85;2.10;;;;;;;13.71;100.00;96011.06;5051004;28;24446;-73
2022/08/21 05:40:56;;;;;;;3.78;2.20;;;;;;;13.76;100.00;96010.75;5047602;28;24530;-73
2022/08/21 05:43:22;;;;;;;6.00;2.08;;;;;;;13.78;100.00;96011.47;5047104;28;24869;-73
2022/08/21 05:45:49;;;;;;;4.18;2.55;;;;;;;13.98;100.00;96010.88;5046289;28;24442;-73
2022/08/21 05:48:18;;;;;;;4.00;2.13;;;;;;;13.95;100.00;96016.28;5048483;28;24769;-73
2022/08/21 05:50:46;;;;;;;3.00;2.33;;;;;;;13.96;100.00;96015.34;5045888;28;24430;-73
2022/08/21 05:53:14;;;;;;;4.72;2.47;;;;;;;14.03;100.00;96013.97;5048783;28;24435;-73
2022/08/21 05:55:42;;;;;;;4.43;2.80;;;;;;;14.15;100.00;96009.63;5045271;28;24428;-73
2022/08/21 05:58:10;;;;;;;3.97;2.47;;;;;;;14.33;100.00;96009.22;5048846;28;24944;-73
2022/08/21 06:00:37;;;;;;;3.50;2.40;;;;;;;14.41;100.00;96012.09;5045200;28;24435;-73
2022/08/21 06:03:04;;;;;;;4.43;2.60;;;;;;;14.60;100.00;96011.56;5049774;28;24462;-73
2022/08/21 06:05:30;;;;;;;4.32;2.70;;;;;;;14.67;100.00;96013.59;5044467;28;24475;-73
2022/08/21 06:07:57;;;;;;;3.38;2.40;;;;;;;14.73;100.00;96007.94;5050535;28;24439;-73
2022/08/21 06:10:23;;;;;;;5.23;2.27;;;;;;;14.82;100.00;96022.03;5043875;28;24949;-73
2022/08/21 06:12:54;;;;;;;3.67;2.55;;;;;;;14.75;100.00;96011.25;5050048;28;24442;-73
2022/08/21 06:15:22;;;;;;;2.88;2.15;;;;;;;14.47;100.00;96020.28;5044541;28;24490;-73
2022/08/21 06:17:49;;;;;;;3.65;2.13;;;;;;;14.38;100.00;96015.75;5050527;28;24435;-73
2022/08/21 06:20:15;;;;;;;3.47;2.28;;;;;;;14.37;100.00;96015.88;5045623;28;24435;-74
2022/08/21 06:22:42;;;;;;;4.90;2.33;;;;;;;14.38;100.00;96015.75;5050356;28;24786;-75
2022/08/21 06:25:10;;;;;;;4.75;2.53;;;;;;;14.44;100.00;96009.25;5044486;28;24830;-74
2022/08/21 06:27:37;;;;;;;5.28;2.53;;;;;;;14.55;100.00;96014.53;5050764;28;25012;-74
2022/08/21 06:30:04;;;;;;;5.70;2.38;;;;;;;14.82;100.00;96002.97;5037973;28;24424;-74
2022/08/21 06:32:32;;;;;;;3.72;2.00;;;;;;;15.17;100.00;96010.72;5049480;28;24438;-74
2022/08/21 06:34:58;;;;;;;5.07;2.70;;;;;;;15.49;98.60;96003.78;5046500;28;24562;-75
2022/08/21 06:37:25;;;;;;;3.83;2.35;;;;;;;15.75;96.00;96005.34;5049193;28;24435;-75
2022/08/21 06:39:51;;;;;;;7.55;2.30;;;;;;;16.02;94.07;96005.75;5046269;28;25014;-73
2022/08/21 06:42:18;;;;;;;4.97;2.40;;;;;;;15.84;94.08;96007.22;5049209;28;24458;-74
2022/08/21 06:44:45;;;;;;;7.15;2.83;;;;;;;15.76;93.82;96007.84;5046460;28;24470;-74
2022/08/21 06:47:12;;;;;;;4.80;2.60;;;;;;;15.97;94.69;96005.28;5049093;28;24496;-74
2022/08/21 06:49:40;;;;;;;4.53;2.53;;;;;;;16.13;91.54;96008.31;5046820;28;24431;-75
2022/08/21 06:52:10;;;;;;;4.28;2.40;;;;;;;15.99;91.82;96013.84;5048956;28;24431;-74
2022/08/21 06:54:37;;;;;;;5.65;3.13;;;;;;;16.08;90.62;96005.22;5046316;28;24494;-75
2022/08/21 06:57:04;;;;;;;4.15;2.67;;;;;;;16.08;90.09;96013.06;5044491;28;24427;-75
2022/08/21 06:59:31;;;;;;;4.85;2.78;;;;;;;16.12;90.33;96004.03;5047451;28;24435;-74
2022/08/21 07:01:57;;;;;;;6.13;2.90;;;;;;;16.27;90.61;96006.34;5044660;28;24432;-75
2022/08/21 07:04:24;;;;;;;7.23;2.90;;;;;;;16.35;89.56;96003.94;5049442;28;24825;-74
2022/08/21 07:06:52;;;;;;;4.57;2.83;;;;;;;16.67;89.19;96009.13;5044511;28;24444;-74
2022/08/21 07:09:18;;;;;;;3.80;2.55;;;;;;;17.24;87.29;96010.41;5041199;28;24434;-74
2022/08/21 07:11:50;;;;;;;5.30;2.80;;;;;;;17.64;83.00;96005.19;5044664;28;24517;-74
2022/08/21 07:14:17;;;;;;;4.78;2.80;;;;;;;17.69;82.76;96007.44;5047629;28;24488;-75
2022/08/21 07:16:43;;;;;;;4.60;2.88;;;;;;;17.54;82.30;96003.50;5044230;28;24427;-75
2022/08/21 07:19:10;;;;;;;5.80;2.72;;;;;;;17.55;83.67;95999.94;5047569;28;24793;-74
2022/08/21 07:21:36;;;;;;;4.50;2.63;;;;;;;17.88;82.91;96007.50;5045113;28;24439;-75
2022/08/21 07:24:04;;;;;;;6.32;2.58;;;;;;;18.10;81.88;95998.56;5047867;28;24459;-74
2022/08/21 07:26:31;;;;;;;5.10;2.70;;;;;;;18.24;81.13;95997.28;5045261;28;24439;-75
2022/08/21 07:28:57;;;;;;;6.88;2.75;;;;;;;18.65;79.47;95989.25;5048193;28;24438;-74
2022/08/21 07:31:27;;;;;;;6.47;2.80;;;;;;;19.21;78.97;95994.56;5049266;28;24435;-74
2022/08/21 07:33:54;;;;;;;4.63;2.67;;;;;;;19.42;76.53;95989.06;5054467;28;24960;-74
2022/08/21 07:36:20;;;;;;;4.82;2.85;;;;;;;19.73;75.12;95994.91;5053430;28;24436;-75
2022/08/21 07:38:47;;;;;;;3.63;2.50;;;;;;;20.12;73.60;95989.38;5050828;28;24524;-73
2022/08/21 07:41:17;;;;;;;4.63;2.53;;;;;;;20.16;72.71;95993.34;5047905;28;24489;-75
2022/08/21 07:43:44;;;;;;;6.22;2.67;;;;;;;20.03;73.18;95987.66;5049875;28;24466;-75
2022/08/21 07:46:11;;;;;;;6.35;2.80;;;;;;;20.23;71.72;95986.50;5048723;28;24438;-73
2022/08/21 07:48:38;;;;;;;4.47;2.88;;;;;;;20.24;71.11;95985.53;5048614;28;24501;-75
2022/08/21 07:51:08;;;;;;;9.13;2.85;;;;;;;20.85;69.84;95988.34;5048834;28;25015;-73
2022/08/21 07:53:35;;;;;;;6.68;3.13;;;;;;;21.14;64.73;95980.16;5048096;28;24904;-73
2022/08/21 07:56:03;;;;;;;9.23;3.65;;;;;;;20.89;63.50;95985.25;5043015;28;25048;-73
2022/08/21 07:58:31;;;;;;;6.47;3.08;;;;;;;21.02;64.10;95983.03;5046767;28;24434;-74
2022/08/21 08:00:58;;;;;;;4.35;2.65;;;;;;;21.28;65.35;95984.81;5048874;28;24435;-73
2022/08/21 08:03:24;;;;;;;5.87;2.73;;;;;;;21.38;65.29;95990.00;5046401;28;24805;-73
2022/08/21 08:05:51;;;;;;;5.70;3.00;;;;;;;21.54;66.57;95987.41;5051692;28;24786;-73
2022/08/21 08:08:17;;;;;;;6.57;2.55;;;;;;;21.75;62.85;95993.09;5050091;28;24435;-73
2022/08/21 08:10:45;;;;;;;7.38;3.15;;;;;;;21.49;62.23;95993.16;5047367;28;24471;-74
2022/08/21 08:13:11;;;;;;;10.15;3.45;;;;;;;21.10;62.79;95989.31;5046954;28;24439;-72
2022/08/21 08:15:39;;;;;;;8.60;3.05;;;;;;;21.08;62.28;95984.22;5052349;28;24434;-73
2022/08/21 08:18:05;;;;;;;5.27;2.80;;;;;;;21.38;60.96;95980.28;5049984;28;24438;-73
2022/08/21 08:20:32;;;;;;;4.68;2.53;;;;;;;21.56;60.44;95979.38;5047042;28;24987;-74
2022/08/21 08:22:59;;;;;;;9.93;3.25;;;;;;;21.65;59.41;95981.03;5049976;28;24438;-75
2022/08/21 08:25:27;;;;;;;5.60;2.95;;;;;;;22.22;59.89;95975.94;5047253;28;25026;-73
2022/08/21 08:27:54;;;;;;;6.97;2.97;;;;;;;22.46;57.93;95972.47;5042689;28;24427;-73
2022/08/21 08:30:23;;;;;;;5.90;2.70;;;;;;;22.90;57.03;95970.31;5044170;28;24435;-71
2022/08/21 08:32:51;;;;;;;6.65;2.67;;;;;;;22.70;55.50;95961.09;5050614;28;24508;-70
2022/08/21 08:35:18;;;;;;;6.60;3.13;;;;;;;22.50;55.08;95960.59;5047060;28;24996;-71
2022/08/21 08:37:45;;;;;;;4.22;2.70;;;;;;;22.26;55.35;95958.78;5050239;28;25057;-71
2022/08/21 08:40:14;;;;;;;3.35;2.30;;;;;;;22.43;54.27;95954.34;5046329;28;24844;-71
2022/08/21 08:42:42;;;;;;;4.50;2.25;;;;;;;22.21;53.63;95958.44;5050023;28;24454;-71
2022/08/21 08:45:11;;;;;;;5.60;2.63;;;;;;;23.01;53.62;95952.50;5048212;28;24860;-70
2022/08/21 08:47:40;;;;;;;5.43;2.55;;;;;;;23.01;51.12;95949.84;5052313;28;24427;-71
2022/08/21 08:50:13;;;;;;;13.48;2.80;;;;;;;23.30;51.91;95942.16;5047515;28;24439;-72
2022/08/21 08:52:46;;;;;;;6.13;2.80;;;;;;;23.50;50.17;95942.56;5050610;28;24442;-71
2022/08/21 08:55:16;;;;;;;9.18;2.92;;;;;;;23.34;50.34;95942.66;5047645;28;24435;-71
2022/08/21 08:57:46;;;;;;;6.75;2.72;;;;;;;24.14;51.36;95940.59;5051007;28;24545;-71
2022/08/21 09:00:15;;;;;;;9.07;2.63;;;;;;;24.02;49.31;95949.91;5046183;28;24786;-71
2022/08/21 09:02:44;;;;;;;5.40;2.50;;;;;;;24.26;47.56;95946.28;5050702;28;25007;-71
2022/08/21 09:05:25;;;;;;;7.05;2.80;;;;;;;24.75;49.18;95937.97;5047498;28;24470;-71
2022/08/21 09:08:10;;;;;;;4.65;2.67;;;;;;;24.15;46.27;95933.47;5028001;22;24483;-73
2022/08/21 09:10:45;;;;;;;6.13;2.57;;;;;;;23.84;47.58;95937.00;5005325;28;24988;-73
2022/08/21 09:13:20;;;;;;;8.50;3.22;;;;;;;23.86;47.33;95932.34;5004448;28;24432;-73
2022/08/21 09:15:57;;;;;;;5.97;2.40;;;;;;;23.89;48.29;95920.59;5011233;28;24429;-73
2022/08/21 09:18:34;;;;;;;6.53;2.80;;;;;;;23.81;48.11;95934.69;4991827;28;24448;-73
2022/08/21 09:21:15;;;;;;;5.97;2.78;;;;;;;24.19;47.71;95926.81;4992046;28;24511;-74
2022/08/21 09:23:51;;;;;;;5.40;2.45;;;;;;;24.89;49.10;95916.97;4986549;28;24444;-73
2022/08/21 09:26:20;;;;;;;6.18;2.88;;;;;;;25.40;47.97;95925.03;4991605;28;24560;-74
2022/08/21 09:28:52;;;;;;;11.13;3.30;;;;;;;25.53;43.83;95925.19;4989510;28;24433;-73
2022/08/21 09:31:25;;;;;;;5.18;2.53;;;;;;;25.72;40.99;95927.25;4989104;28;24447;-73
2022/08/21 09:33:58;;;;;;;10.75;3.20;;;;;;;25.50;39.81;95926.38;4991938;28;24428;-73
2022/08/21 09:36:35;;;;;;;6.00;3.08;;;;;;;24.98;40.66;95919.34;4989424;28;24994;-73
2022/08/21 09:39:01;;;;;;;6.13;2.93;;;;;;;24.75;40.90;95918.59;4991387;28;24488;-73
2022/08/21 09:41:30;;;;;;;7.80;3.10;;;;;;;24.32;42.06;95921.75;4991595;28;24429;-74
2022/08/21 09:43:57;;;;;;;11.13;2.38;;;;;;;24.85;39.75;95914.69;4991314;28;25013;-73
2022/08/21 09:46:26;;;;;;;2.90;1.80;;;;;;;25.18;39.54;95922.31;4988761;28;24437;-73
2022/08/21 09:48:55;;;;;;;5.22;2.13;;;;;;;25.12;38.69;95916.91;4991442;28;24440;-73
2022/08/21 09:51:24;;;;;;;7.25;2.47;;;;;;;25.60;39.16;95918.16;4990959;28;24493;-73
2022/08/21 09:53:55;;;;;;;5.75;2.22;;;;;;;25.80;40.66;95915.75;4991328;28;24799;-73
2022/08/21 09:59:18;;;;;;;4.65;2.30;;;;;;;25.86;37.13;95914.19;4991119;28;24428;-73
2022/08/21 10:01:48;;;;;;;4.30;2.05;;;;;;;25.76;38.71;95915.25;4990883;28;24433;-73
2022/08/21 10:04:15;;;;;;;4.10;2.25;;;;;;;25.90;36.99;95916.28;4991493;28;24457;-73
2022/08/21 10:06:42;;;;;;;3.90;2.38;;;;;;;26.12;37.88;95901.19;4990925;28;24443;-73
2022/08/21 10:09:13;;;;;;;4.20;2.20;;;;;;;26.50;38.23;95895.59;4990907;28;25077;-73
2022/08/21 10:11:41;;;;;;;4.50;2.40;;;;;;;25.85;37.06;95907.25;4983646;28;24433;-73
2022/08/21 10:14:17;;;;;;;7.55;2.35;;;;;;;25.26;37.10;95897.53;4990774;28;25033;-72
2022/08/21 10:16:57;;;;;;;3.93;2.30;;;;;;;24.69;37.87;95893.66;4991050;28;24791;-73
2022/08/21 10:19:30;;;;;;;5.18;2.67;;;;;;;24.71;38.75;95891.66;4986102;28;24787;-73
2022/08/21 10:22:15;;;;;;;4.87;2.47;;;;;;;24.49;39.01;95889.88;4990704;28;24440;-73
2022/08/21 10:24:52;;;;;;;4.03;2.38;;;;;;;24.52;38.46;95886.88;4988091;28;24535;-73
2022/08/21 10:27:30;;;;;;;4.00;2.20;;;;;;;24.61;40.03;95883.97;4990810;28;24441;-73
2022/08/21 10:30:02;;;;;;;5.82;2.30;;;;;;;24.92;38.50;95884.78;4984928;28;24838;-73
2022/08/21 10:33:04;;;;;;;7.50;2.65;;;;;;;24.86;38.73;95881.88;4983858;28;24444;-73
2022/08/21 10:35:36;;;;;;;5.65;2.60;;;;;;;24.91;38.71;95883.97;4983857;28;24421;-73
2022/08/21 10:38:40;;;;;;;6.82;2.75;;;;;;;25.21;37.77;95879.53;4990291;28;24511;-73
2022/08/21 10:41:19;;;;;;;9.57;2.75;;;;;;;24.58;38.94;95878.19;4990279;28;24856;-73
2022/08/21 10:43:57;;;;;;;5.30;2.57;;;;;;;24.94;39.77;95875.66;4990793;28;24440;-73
2022/08/21 10:46:37;;;;;;;6.65;2.45;;;;;;;25.78;39.70;95870.00;4988769;28;24461;-73
2022/08/21 10:49:18;;;;;;;3.50;2.30;;;;;;;25.60;38.79;95865.09;4990261;28;24440;-73
2022/08/21 10:51:55;;;;;;;5.43;2.70;;;;;;;25.21;39.55;95866.25;4990019;28;24447;-73
2022/08/21 10:54:37;;;;;;;3.95;2.53;;;;;;;25.83;39.46;95864.97;4990403;28;24433;-73
2022/08/21 10:57:10;;;;;;;5.65;2.38;;;;;;;26.01;37.95;95862.69;4990333;28;24444;-73
2022/08/21 10:59:43;;;;;;;4.78;2.45;;;;;;;26.27;39.26;95859.44;4990248;28;24429;-73
2022/08/21 11:02:16;;;;;;;4.63;2.40;;;;;;;25.94;38.12;95863.66;4990011;28;24429;-73
2022/08/21 11:04:52;;;;;;;5.97;2.47;;;;;;;25.88;38.67;95870.50;4990267;28;24449;-73
2022/08/21 11:07:23;;;;;;;6.63;2.67;;;;;;;24.99;39.37;95865.38;4990119;28;24440;-73
2022/08/21 11:09:50;;;;;;;5.80;2.83;;;;;;;24.67;39.49;95863.06;4990059;28;24996;-73
2022/08/21 11:12:26;;;;;;;3.88;2.55;;;;;;;24.87;40.92;95859.69;4990102;28;24791;-72
2022/08/21 11:14:59;;;;;;;5.15;2.38;;;;;;;25.22;40.76;95859.16;4985930;28;24460;-73
2022/08/21 11:17:33;;;;;;;3.45;2.10;;;;;;;25.01;39.72;95860.69;4989927;28;25005;-73
2022/08/21 11:20:06;;;;;;;3.88;2.15;;;;;;;24.65;39.12;95859.78;4989886;28;24463;-73
2022/08/21 11:22:38;;;;;;;4.55;2.75;;;;;;;24.67;40.00;95860.41;4989980;28;24981;-73
2022/08/21 11:25:11;;;;;;;5.30;2.47;;;;;;;24.75;39.61;95853.19;4989717;28;24470;-73
2022/08/21 11:27:45;;;;;;;6.82;2.70;;;;;;;24.81;40.13;95856.97;4989726;28;24437;-73
2022/08/21 11:30:12;;;;;;;5.68;3.10;;;;;;;25.82;40.51;95848.22;4990131;28;24433;-73
2022/08/21 11:32:57;;;;;;;7.65;3.00;;;;;;;26.31;38.32;95849.25;4990157;28;24429;-72
2022/08/21 11:35:34;;;;;;;6.40;2.97;;;;;;;25.92;35.53;95847.91;4989669;28;24436;-72
2022/08/21 11:38:16;;;;;;;7.85;2.80;;;;;;;26.05;37.45;95839.25;4986745;28;24432;-73
2022/08/21 11:41:00;;;;;;;5.47;2.60;;;;;;;26.27;37.77;95838.22;4992263;28;24433;-73